Hovedside
METAR-TAF:

METAR-TAF

Lufthavner :

Auckland internasjonale lufthavn

Auckland, New Zealand

breddegrad: 37-01S, lengdegrad: 174-48E, høyde over havet: 7 m

Gjeldene værobservasjon

Denne rapporten ble laget for 25 minutter siden, klokken 03:30 UTC
Vind 9 kt fra Sørøst
Temperatur 13°C
Luftfuktighet 94%
Trykk 1019 hPa
Sikt 10 km eller mer

METAR: NZAA 270330Z AUTO 13009KT 9999 FEW018/// BKN025/// 13/12 Q1019 NOSIG

Tid: 15:55 (03:55 UTC)

Varsel

Denne rapporten ble laget for 4 timer og 53 minutter siden, klokken 23:02 UTC
Varsel gyldig fra 27. klokken 00 UTC til 28. klokken 00 UTC
Vind 8 kt fra Øst
Sikt 10 km eller mer
Spredte skyer i en høyde av 1200 ft
Brutte skyer i en høyde av 3000 ft
lette regnbyger
Midlertidig
fra 27. klokken 00 UTC til 27. klokken 03 UTC
Sikt: 6000 m
Brutte skyer i en høyde av 1400 ft
regnbyger

TAF: NZAA 262302Z 2700/2800 10008KT 9999 -SHRA SCT012 BKN030 TEMPO 2700/2703 6000 SHRA BKN014

Værobservasjoner og værvarsel for over 4000 flyplasser (METAR- og TAF-rapporter).

Tilgjengelige stasjoner er representert av de røde og gule prikkene på kartet.

Hold musepekeren over prikken for å se navnet på stasjonen.

Klikk så for å se værobservasjoner og -varsler.

For å forandre kartet kan du klikke på den grønne knappen med svart kryss for å zoome inn, på den grønne knappen med strek for å zoome ut, eller på de grønne pilene for å se tilstøtende kart.


METAR-TAF: